Time;durP1;ratioP1;P1;durP2;ratioP2;P2;SDS_P1;SDS_P2;PMS_P1;PMS_P2;Temp;Humidity;BMP_temperature;BMP_pressure;BME280_temperature;BME280_humidity;BME280_pressure;Samples;Min_cycle;Max_cycle;Signal;HPM_P1;HPM_P2
2023/12/31 00:00:46;;;;;;;0.00;0.00;;;12.00;75.40;;;;;;5087169;28;20726;-36
2023/12/31 00:03:13;;;;;;;0.00;0.00;;;12.00;75.30;;;;;;5087919;28;20686;-37
2023/12/31 00:05:42;;;;;;;0.00;0.00;;;12.00;75.40;;;;;;5088077;28;20230;-35
2023/12/31 00:08:17;;;;;;;0.00;0.00;;;12.00;75.40;;;;;;5087897;28;20207;-37
2023/12/31 00:10:46;;;;;;;0.00;0.00;;;12.00;75.40;;;;;;5087415;28;20217;-36
2023/12/31 00:13:16;;;;;;;0.00;0.00;;;12.00;75.50;;;;;;5081113;28;20191;-37
2023/12/31 00:15:46;;;;;;;0.00;0.00;;;12.00;75.50;;;;;;5086534;28;20207;-36
2023/12/31 00:18:15;;;;;;;0.00;0.00;;;11.90;75.40;;;;;;5088574;28;20294;-37
2023/12/31 00:20:43;;;;;;;0.00;0.00;;;12.00;75.40;;;;;;5086181;28;20739;-25
2023/12/31 00:23:11;;;;;;;0.00;0.00;;;11.90;75.40;;;;;;5085723;28;20205;-25
2023/12/31 00:25:39;;;;;;;0.00;0.00;;;12.00;75.30;;;;;;5088150;28;20219;-25
2023/12/31 00:28:06;;;;;;;0.00;0.00;;;12.00;75.40;;;;;;5089027;28;20210;-25
2023/12/31 00:30:35;;;;;;;0.00;0.00;;;12.00;75.30;;;;;;5087187;28;20206;-25
2023/12/31 00:33:04;;;;;;;0.00;0.00;;;12.00;75.30;;;;;;5081735;28;20211;-25
2023/12/31 00:35:32;;;;;;;0.00;0.00;;;12.00;75.30;;;;;;5087230;28;20203;-25
2023/12/31 00:38:01;;;;;;;0.00;0.00;;;11.90;75.30;;;;;;5088384;28;20203;-25
2023/12/31 00:40:29;;;;;;;0.00;0.00;;;12.00;75.30;;;;;;5087184;28;20260;-25
2023/12/31 00:42:57;;;;;;;0.00;0.00;;;11.90;75.30;;;;;;5082867;28;20211;-25
2023/12/31 00:45:26;;;;;;;0.00;0.00;;;11.90;75.20;;;;;;5088686;28;20215;-25
2023/12/31 00:47:56;;;;;;;0.00;0.00;;;11.90;76.00;;;;;;5086279;28;21013;-25
2023/12/31 00:50:25;;;;;;;0.00;0.00;;;11.90;75.20;;;;;;5069485;28;20195;-25
2023/12/31 00:52:55;;;;;;;0.00;0.00;;;11.90;75.30;;;;;;5086604;28;20578;-25
2023/12/31 00:55:25;;;;;;;0.00;0.00;;;11.90;75.10;;;;;;5086891;28;20203;-25
2023/12/31 00:57:57;;;;;;;0.00;0.00;;;11.90;75.20;;;;;;5086510;28;20230;-25
2023/12/31 01:00:24;;;;;;;0.00;0.00;;;11.90;75.10;;;;;;5086205;28;20590;-25
2023/12/31 01:02:51;;;;;;;0.00;0.00;;;11.90;75.20;;;;;;5084911;28;20219;-25
2023/12/31 01:05:21;;;;;;;0.00;0.00;;;11.90;75.20;;;;;;5086457;28;20242;-25
2023/12/31 01:07:49;;;;;;;0.00;0.00;;;11.90;75.20;;;;;;5080907;28;20313;-25
2023/12/31 01:10:21;;;;;;;0.00;0.00;;;11.90;75.20;;;;;;5086896;28;20293;-25
2023/12/31 01:12:52;;;;;;;0.00;0.00;;;11.90;75.20;;;;;;5084281;28;20215;-25
2023/12/31 01:15:22;;;;;;;0.00;0.00;;;11.90;75.20;;;;;;5083354;28;20207;-25
2023/12/31 01:17:49;;;;;;;0.00;0.00;;;11.80;75.20;;;;;;5077681;28;21160;-25
2023/12/31 01:20:19;;;;;;;0.00;0.00;;;11.90;75.30;;;;;;5086966;28;20217;-25
2023/12/31 01:22:51;;;;;;;0.00;0.00;;;11.90;75.20;;;;;;5088034;28;20302;-25
2023/12/31 01:25:18;;;;;;;0.00;0.00;;;11.90;75.20;;;;;;5082388;28;20227;-25
2023/12/31 01:27:46;;;;;;;0.00;0.00;;;11.90;75.20;;;;;;5079773;28;20237;-25
2023/12/31 01:30:15;;;;;;;0.00;0.00;;;11.80;75.20;;;;;;5087452;28;20224;-25
2023/12/31 01:32:43;;;;;;;0.00;0.00;;;11.90;75.20;;;;;;5084884;28;20199;-25
2023/12/31 01:35:13;;;;;;;0.00;0.00;;;11.80;75.10;;;;;;5083013;28;20713;-25
2023/12/31 01:37:40;;;;;;;0.00;0.00;;;11.80;75.30;;;;;;5085215;28;20199;-25
2023/12/31 01:40:08;;;;;;;0.00;0.00;;;11.80;75.20;;;;;;5086224;28;20215;-25
2023/12/31 01:42:38;;;;;;;0.00;0.00;;;11.80;75.20;;;;;;5086034;28;20210;-25
2023/12/31 01:45:06;;;;;;;0.00;0.00;;;11.80;75.20;;;;;;5087172;28;20558;-25
2023/12/31 01:47:38;;;;;;;0.00;0.00;;;11.90;75.40;;;;;;5085765;28;21143;-25
2023/12/31 01:50:07;;;;;;;0.00;0.00;;;11.90;75.30;;;;;;5087781;28;20700;-25
2023/12/31 01:52:37;;;;;;;0.00;0.00;;;11.80;76.00;;;;;;5086413;28;20218;-25
2023/12/31 01:55:07;;;;;;;0.00;0.00;;;11.90;75.20;;;;;;5062346;28;20206;-25
2023/12/31 01:57:40;;;;;;;0.00;0.00;;;11.90;75.20;;;;;;5083279;28;20210;-25
2023/12/31 02:00:09;;;;;;;0.00;0.00;;;11.80;75.10;;;;;;5076224;28;20195;-25
2023/12/31 02:02:43;;;;;;;0.00;0.00;;;11.90;75.20;;;;;;5080623;28;20203;-25
2023/12/31 02:05:11;;;;;;;0.00;0.00;;;11.90;75.20;;;;;;5079715;28;20334;-25
2023/12/31 02:07:43;;;;;;;0.00;0.00;;;11.80;75.20;;;;;;5059968;28;20203;-25
2023/12/31 02:10:11;;;;;;;0.00;0.00;;;11.90;75.30;;;;;;5085981;28;20203;-25
2023/12/31 02:12:39;;;;;;;0.00;0.00;;;11.80;75.30;;;;;;5083890;28;20276;-25
2023/12/31 02:15:08;;;;;;;0.00;0.00;;;11.90;76.10;;;;;;5078727;28;20203;-25
2023/12/31 02:17:36;;;;;;;0.00;0.00;;;11.90;75.30;;;;;;5084579;28;20198;-25
2023/12/31 02:20:04;;;;;;;0.00;0.00;;;11.90;75.30;;;;;;5087386;28;20202;-37
2023/12/31 02:22:32;;;;;;;0.00;0.00;;;11.90;76.00;;;;;;5089494;28;20230;-25
2023/12/31 02:25:07;;;;;;;0.00;0.00;;;11.90;75.30;;;;;;5090519;28;20285;-25
2023/12/31 02:27:34;;;;;;;0.00;0.00;;;11.90;76.10;;;;;;5089104;28;20849;-25
2023/12/31 02:30:06;;;;;;;0.00;0.00;;;11.90;75.30;;;;;;5088887;28;20617;-25
2023/12/31 02:32:37;;;;;;;0.00;0.00;;;11.90;75.30;;;;;;5082504;28;20198;-25
2023/12/31 02:35:09;;;;;;;0.00;0.00;;;11.90;75.30;;;;;;5088142;28;20310;-25
2023/12/31 02:37:41;;;;;;;0.00;0.00;;;11.90;75.10;;;;;;5087032;28;20195;-25
2023/12/31 02:40:09;;;;;;;0.00;0.00;;;11.90;75.10;;;;;;5091010;28;20225;-25
2023/12/31 02:42:36;;;;;;;0.00;0.00;;;11.90;75.20;;;;;;5083697;28;20207;-25
2023/12/31 02:45:03;;;;;;;0.00;0.00;;;11.90;75.10;;;;;;5090830;28;20202;-24
2023/12/31 02:47:31;;;;;;;0.00;0.00;;;11.90;75.20;;;;;;5071323;28;20663;-25
2023/12/31 02:49:58;;;;;;;0.00;0.00;;;11.90;75.30;;;;;;5084264;28;20207;-25
2023/12/31 02:52:28;;;;;;;0.00;0.00;;;12.00;75.40;;;;;;5090360;28;20217;-25
2023/12/31 02:54:55;;;;;;;0.00;0.00;;;12.00;75.30;;;;;;5090720;28;20214;-25
2023/12/31 02:57:24;;;;;;;0.00;0.00;;;12.00;75.20;;;;;;5089873;28;20223;-25
2023/12/31 02:59:54;;;;;;;0.00;0.00;;;12.00;75.30;;;;;;5086463;28;20206;-24
2023/12/31 03:02:21;;;;;;;0.00;0.00;;;12.00;75.30;;;;;;5084495;28;20494;-25
2023/12/31 03:04:50;;;;;;;0.00;0.00;;;12.00;75.20;;;;;;5089289;28;20298;-25
2023/12/31 03:07:23;;;;;;;0.00;0.00;;;12.00;75.30;;;;;;5068174;28;20219;-25
2023/12/31 03:09:54;;;;;;;0.00;0.00;;;12.00;75.30;;;;;;5087019;28;20260;-25
2023/12/31 03:12:26;;;;;;;0.00;0.00;;;12.00;75.40;;;;;;5088159;28;20205;-25
2023/12/31 03:14:55;;;;;;;0.00;0.00;;;12.00;75.30;;;;;;5089007;28;20215;-25
2023/12/31 03:17:23;;;;;;;0.00;0.00;;;12.00;75.30;;;;;;5070857;28;20328;-25
2023/12/31 03:19:50;;;;;;;0.00;0.00;;;12.00;75.30;;;;;;5088242;28;20267;-25
2023/12/31 03:22:25;;;;;;;0.00;0.00;;;12.00;75.30;;;;;;5087489;28;20225;-25
2023/12/31 03:25:07;;;;;;;0.00;0.00;;;12.00;75.30;;;;;;5060351;28;20211;-25
2023/12/31 03:27:37;;;;;;;0.00;0.00;;;12.00;75.30;;;;;;5087884;28;20301;-25
2023/12/31 03:30:05;;;;;;;0.00;0.00;;;12.00;75.30;;;;;;5089304;28;20286;-25
2023/12/31 03:32:35;;;;;;;0.00;0.00;;;12.00;75.30;;;;;;5068758;28;20252;-38
2023/12/31 03:35:02;;;;;;;0.00;0.00;;;12.10;75.30;;;;;;5089847;28;20191;-37
2023/12/31 03:37:30;;;;;;;0.00;0.00;;;12.00;75.20;;;;;;5088417;28;20219;-36
2023/12/31 03:39:58;;;;;;;0.00;0.00;;;12.00;75.20;;;;;;5087231;28;20281;-37
2023/12/31 03:42:25;;;;;;;0.00;0.00;;;12.00;75.20;;;;;;5088268;28;20222;-37
2023/12/31 03:44:52;;;;;;;0.00;0.00;;;12.10;75.30;;;;;;5089365;28;20191;-37
2023/12/31 03:47:24;;;;;;;0.00;0.00;;;12.00;75.20;;;;;;5087389;28;20588;-38
2023/12/31 03:49:53;;;;;;;0.00;0.00;;;12.10;75.30;;;;;;5085420;28;20207;-38
2023/12/31 03:52:23;;;;;;;0.00;0.00;;;12.10;75.20;;;;;;5089351;28;20353;-38
2023/12/31 03:54:53;;;;;;;0.00;0.00;;;12.10;75.20;;;;;;5086341;28;20199;-38
2023/12/31 03:57:20;;;;;;;0.00;0.00;;;12.10;75.20;;;;;;5089181;28;20225;-36
2023/12/31 03:59:47;;;;;;;0.00;0.00;;;12.10;75.20;;;;;;5087742;28;20320;-36
2023/12/31 04:02:17;;;;;;;0.00;0.00;;;12.00;75.10;;;;;;5087279;28;20644;-38
2023/12/31 04:04:47;;;;;;;0.00;0.00;;;12.10;75.20;;;;;;5087538;28;20226;-38
2023/12/31 04:07:16;;;;;;;0.00;0.00;;;12.00;75.00;;;;;;5081958;28;20227;-37
2023/12/31 04:09:46;;;;;;;0.00;0.00;;;12.00;75.10;;;;;;5089045;28;20669;-38
2023/12/31 04:12:16;;;;;;;0.00;0.00;;;12.10;75.20;;;;;;5087921;28;20207;-38
2023/12/31 04:14:43;;;;;;;0.00;0.00;;;12.00;75.10;;;;;;5082703;28;20195;-37
2023/12/31 04:17:13;;;;;;;0.00;0.00;;;12.00;75.20;;;;;;5087575;28;20211;-38
2023/12/31 04:19:42;;;;;;;0.00;0.00;;;12.00;75.10;;;;;;5087133;28;20230;-38
2023/12/31 04:22:10;;;;;;;0.00;0.00;;;12.00;75.20;;;;;;5087687;28;20701;-38
2023/12/31 04:24:41;;;;;;;0.00;0.00;;;12.00;75.20;;;;;;5087921;28;20641;-37
2023/12/31 04:27:08;;;;;;;0.00;0.00;;;12.00;75.20;;;;;;5087543;28;20222;-37
2023/12/31 04:29:35;;;;;;;0.00;0.00;;;12.10;75.20;;;;;;5088262;28;20210;-38
2023/12/31 04:32:05;;;;;;;0.00;0.00;;;12.10;75.30;;;;;;5087230;28;20223;-37
2023/12/31 04:34:35;;;;;;;0.00;0.00;;;12.10;75.20;;;;;;5086867;28;20195;-37
2023/12/31 04:37:05;;;;;;;0.00;0.00;;;12.10;75.30;;;;;;5088543;28;20243;-37
2023/12/31 04:39:32;;;;;;;0.00;0.00;;;12.10;75.10;;;;;;5086393;28;20221;-37
2023/12/31 04:42:03;;;;;;;0.00;0.00;;;12.10;75.20;;;;;;5085164;28;20230;-38
2023/12/31 04:44:30;;;;;;;0.00;0.00;;;12.10;75.20;;;;;;5086615;28;20336;-37
2023/12/31 04:46:59;;;;;;;0.00;0.00;;;12.10;75.20;;;;;;5078263;28;20633;-38
2023/12/31 04:49:27;;;;;;;0.00;0.00;;;12.10;75.20;;;;;;5085909;28;20602;-37
2023/12/31 04:51:59;;;;;;;0.00;0.00;;;12.10;75.20;;;;;;5088436;28;20209;-38
2023/12/31 04:54:26;;;;;;;0.00;0.00;;;12.20;75.20;;;;;;5088368;28;20200;-37
2023/12/31 04:56:53;;;;;;;0.00;0.00;;;12.20;75.30;;;;;;5087057;28;20219;-36
2023/12/31 04:59:22;;;;;;;0.00;0.00;;;12.20;75.30;;;;;;5087008;28;20203;-37
2023/12/31 05:01:50;;;;;;;0.00;0.00;;;12.20;75.20;;;;;;5087790;28;20217;-37
2023/12/31 05:04:19;;;;;;;0.00;0.00;;;12.20;75.20;;;;;;5085413;28;20209;-38
2023/12/31 05:06:48;;;;;;;0.00;0.00;;;12.20;75.20;;;;;;5086322;28;20235;-38
2023/12/31 05:09:16;;;;;;;0.00;0.00;;;12.20;75.20;;;;;;5087929;28;20206;-38
2023/12/31 05:11:45;;;;;;;0.00;0.00;;;12.30;75.30;;;;;;5086801;28;20203;-38
2023/12/31 05:14:15;;;;;;;0.00;0.00;;;12.30;75.20;;;;;;5086560;28;20535;-37
2023/12/31 05:16:42;;;;;;;0.00;0.00;;;12.30;75.20;;;;;;5087327;28;20221;-38
2023/12/31 05:19:09;;;;;;;0.00;0.00;;;12.30;75.20;;;;;;5086220;28;20199;-38
2023/12/31 05:21:40;;;;;;;0.00;0.00;;;12.30;75.20;;;;;;5083747;28;20214;-38
2023/12/31 05:24:10;;;;;;;0.00;0.00;;;12.30;75.20;;;;;;5086779;28;20202;-37
2023/12/31 05:26:37;;;;;;;0.00;0.00;;;12.30;75.10;;;;;;5088064;28;20227;-37
2023/12/31 05:29:04;;;;;;;0.00;0.00;;;12.30;75.10;;;;;;5086456;28;20214;-37
2023/12/31 05:31:32;;;;;;;0.00;0.00;;;12.30;74.90;;;;;;5083958;28;20356;-38
2023/12/31 05:33:59;;;;;;;0.00;0.00;;;12.40;75.00;;;;;;5054272;28;20207;-37
2023/12/31 05:36:29;;;;;;;0.00;0.00;;;12.40;75.00;;;;;;5087940;28;20203;-36
2023/12/31 05:38:56;;;;;;;0.00;0.00;;;12.40;75.00;;;;;;5080148;28;20223;-37
2023/12/31 05:41:28;;;;;;;0.00;0.00;;;12.40;75.00;;;;;;5086357;28;20213;-37
2023/12/31 05:43:57;;;;;;;0.00;0.00;;;12.30;74.90;;;;;;5087812;28;20211;-37
2023/12/31 05:46:27;;;;;;;0.00;0.00;;;12.40;74.90;;;;;;5085800;28;20367;-38
2023/12/31 05:48:54;;;;;;;0.00;0.00;;;12.40;75.00;;;;;;5085828;28;20715;-37
2023/12/31 05:51:25;;;;;;;0.00;0.00;;;12.40;75.00;;;;;;5084975;28;20620;-37
2023/12/31 05:53:54;;;;;;;0.00;0.00;;;12.40;75.10;;;;;;5088006;28;20874;-37
2023/12/31 05:56:28;;;;;;;0.00;0.00;;;12.40;74.90;;;;;;5084529;28;20225;-37
2023/12/31 05:58:56;;;;;;;0.00;0.00;;;12.40;75.00;;;;;;5087194;28;20252;-37
2023/12/31 06:01:23;;;;;;;0.00;0.00;;;12.40;74.90;;;;;;5081249;28;20218;-37
2023/12/31 06:03:55;;;;;;;0.00;0.00;;;12.40;75.00;;;;;;5088496;28;20240;-38
2023/12/31 06:06:23;;;;;;;0.00;0.00;;;12.40;74.90;;;;;;5086556;28;20227;-37
2023/12/31 06:08:52;;;;;;;0.00;0.00;;;12.40;74.80;;;;;;5088727;28;20218;-37
2023/12/31 06:11:22;;;;;;;0.00;0.00;;;12.40;74.80;;;;;;5088633;28;20209;-37
2023/12/31 06:13:50;;;;;;;0.00;0.00;;;12.40;74.80;;;;;;5062428;28;20206;-37
2023/12/31 06:16:21;;;;;;;0.00;0.00;;;12.40;74.60;;;;;;5089315;28;20230;-38
2023/12/31 06:18:51;;;;;;;0.00;0.00;;;12.40;74.80;;;;;;5091062;28;20217;-37
2023/12/31 06:21:20;;;;;;;0.00;0.00;;;12.40;74.90;;;;;;5091100;28;20203;-37
2023/12/31 06:23:51;;;;;;;0.00;0.00;;;12.50;74.80;;;;;;5089303;28;20199;-37
2023/12/31 06:26:18;;;;;;;0.00;0.00;;;12.50;74.90;;;;;;5089741;28;20211;-38
2023/12/31 06:28:45;;;;;;;0.00;0.00;;;12.50;74.80;;;;;;5091190;28;20195;-38
2023/12/31 06:31:12;;;;;;;0.00;0.00;;;12.50;74.80;;;;;;5089615;28;20214;-38
2023/12/31 06:33:40;;;;;;;0.00;0.00;;;12.50;74.80;;;;;;5083551;28;20223;-38
2023/12/31 06:36:07;;;;;;;0.00;0.00;;;12.50;74.80;;;;;;5072590;28;20207;-37
2023/12/31 06:38:34;;;;;;;0.00;0.00;;;12.60;74.90;;;;;;5066583;28;20218;-37
2023/12/31 06:41:10;;;;;;;0.00;0.00;;;12.60;74.50;;;;;;5081798;28;20318;-37
2023/12/31 06:43:38;;;;;;;0.00;0.00;;;12.60;75.60;;;;;;5090505;28;20688;-37
2023/12/31 06:46:08;;;;;;;0.00;0.00;;;12.60;74.80;;;;;;5085047;28;20221;-38
2023/12/31 06:48:35;;;;;;;0.00;0.00;;;12.60;74.80;;;;;;5087179;28;20682;-38
2023/12/31 06:51:05;;;;;;;0.00;0.00;;;12.60;74.80;;;;;;5083091;28;20692;-37
2023/12/31 06:53:38;;;;;;;0.00;0.00;;;12.70;74.90;;;;;;5084248;28;20219;-37
2023/12/31 06:56:06;;;;;;;0.00;0.00;;;12.70;74.80;;;;;;5082319;28;20863;-38
2023/12/31 06:58:41;;;;;;;0.00;0.00;;;12.70;75.00;;;;;;5089931;28;20221;-37
2023/12/31 07:01:13;;;;;;;0.00;0.00;;;12.70;74.90;;;;;;5085209;28;20214;-38
2023/12/31 07:03:45;;;;;;;0.00;0.00;;;12.70;74.80;;;;;;5085539;28;20224;-37
2023/12/31 07:06:19;;;;;;;0.00;0.00;;;12.80;74.70;;;;;;5082716;28;20234;-37
2023/12/31 07:08:46;;;;;;;0.00;0.00;;;12.80;74.60;;;;;;5079418;28;20235;-38
2023/12/31 07:11:16;;;;;;;0.00;0.00;;;12.80;74.80;;;;;;5087753;28;20202;-38
2023/12/31 07:13:46;;;;;;;0.00;0.00;;;12.80;74.60;;;;;;5080226;28;20591;-38
2023/12/31 07:16:16;;;;;;;0.00;0.00;;;12.80;74.60;;;;;;5084859;28;20195;-37
2023/12/31 07:18:47;;;;;;;0.00;0.00;;;12.80;74.60;;;;;;5086947;28;20210;-24
2023/12/31 07:21:26;;;;;;;0.00;0.00;;;12.80;74.70;;;;;;5081273;28;20203;-25
2023/12/31 07:23:53;;;;;;;0.00;0.00;;;12.80;74.60;;;;;;5087438;28;20210;-25
2023/12/31 07:26:27;;;;;;;0.00;0.00;;;12.90;74.80;;;;;;5083328;28;20199;-25
2023/12/31 07:28:56;;;;;;;0.00;0.00;;;12.90;74.30;;;;;;5089334;28;20218;-27
2023/12/31 07:31:38;;;;;;;0.00;0.00;;;12.90;74.60;;;;;;5085569;28;20195;-25
2023/12/31 07:34:11;;;;;;;0.00;0.00;;;12.90;74.60;;;;;;5089379;28;20281;-25
2023/12/31 07:36:38;;;;;;;0.00;0.00;;;12.90;74.20;;;;;;5087778;28;20204;-25
2023/12/31 07:39:08;;;;;;;0.00;0.00;;;12.90;74.10;;;;;;5081903;28;20199;-25
2023/12/31 07:41:35;;;;;;;0.00;0.00;;;12.90;74.10;;;;;;5087626;28;20199;-25
2023/12/31 07:44:04;;;;;;;0.00;0.00;;;12.90;74.20;;;;;;5087772;28;20727;-25
2023/12/31 07:46:34;;;;;;;0.00;0.00;;;12.90;74.00;;;;;;5084753;28;20207;-24
2023/12/31 07:49:04;;;;;;;0.00;0.00;;;12.90;74.00;;;;;;5081326;28;20571;-25
2023/12/31 07:51:33;;;;;;;0.00;0.00;;;12.90;73.80;;;;;;5085912;28;20290;-25
2023/12/31 07:54:01;;;;;;;0.00;0.00;;;12.80;74.10;;;;;;5085034;28;20298;-24
2023/12/31 07:56:28;;;;;;;0.00;0.00;;;12.80;74.20;;;;;;5084751;28;20202;-25
2023/12/31 07:58:55;;;;;;;0.00;0.00;;;12.80;74.10;;;;;;5063947;28;20207;-38
2023/12/31 08:01:23;;;;;;;0.00;0.00;;;12.80;74.10;;;;;;5081738;28;20195;-38
2023/12/31 08:03:50;;;;;;;0.00;0.00;;;12.80;73.90;;;;;;5086694;28;20613;-37
2023/12/31 08:06:18;;;;;;;0.00;0.00;;;12.80;74.20;;;;;;5089177;28;20950;-37
2023/12/31 08:08:48;;;;;;;0.00;0.00;;;12.80;74.30;;;;;;5089253;28;20284;-38
2023/12/31 08:11:16;;;;;;;0.00;0.00;;;12.80;74.30;;;;;;5068919;28;20276;-38
2023/12/31 08:13:48;;;;;;;0.00;0.00;;;12.80;74.00;;;;;;5084077;28;20222;-37
2023/12/31 08:16:19;;;;;;;0.00;0.00;;;12.70;74.00;;;;;;5087822;28;20198;-37
2023/12/31 08:18:48;;;;;;;0.00;0.00;;;12.70;74.10;;;;;;5070238;28;20734;-37
2023/12/31 08:21:16;;;;;;;0.00;0.00;;;12.70;74.00;;;;;;5083272;28;20695;-38
2023/12/31 08:23:48;;;;;;;0.00;0.00;;;12.60;74.00;;;;;;5083848;28;20772;-37
2023/12/31 08:26:15;;;;;;;0.00;0.00;;;12.60;74.00;;;;;;5084363;28;20653;-38
2023/12/31 08:28:45;;;;;;;0.00;0.00;;;12.60;74.20;;;;;;5083571;28;20231;-37
2023/12/31 08:31:16;;;;;;;0.00;0.00;;;12.60;74.20;;;;;;5084424;28;20198;-38
2023/12/31 08:33:43;;;;;;;0.00;0.00;;;12.60;74.00;;;;;;5087707;28;20573;-38
2023/12/31 08:36:11;;;;;;;0.00;0.00;;;12.60;74.20;;;;;;5086373;28;20192;-39
2023/12/31 08:38:40;;;;;;;0.00;0.00;;;12.60;74.20;;;;;;5088802;28;20215;-37
2023/12/31 08:41:10;;;;;;;0.00;0.00;;;12.60;74.20;;;;;;5087092;28;20199;-38
2023/12/31 08:43:37;;;;;;;0.00;0.00;;;12.60;74.10;;;;;;5086049;28;20693;-38
2023/12/31 08:46:05;;;;;;;0.00;0.00;;;12.60;74.20;;;;;;5082212;28;20293;-38
2023/12/31 08:48:34;;;;;;;0.00;0.00;;;12.60;74.20;;;;;;5084080;28;20227;-37
2023/12/31 08:51:07;;;;;;;0.00;0.00;;;12.50;74.10;;;;;;5082272;28;20195;-37
2023/12/31 08:53:37;;;;;;;0.00;0.00;;;12.50;74.00;;;;;;5085673;28;20214;-38
2023/12/31 08:56:07;;;;;;;0.00;0.00;;;12.50;73.80;;;;;;5087817;28;20206;-38
2023/12/31 08:58:34;;;;;;;0.00;0.00;;;12.50;74.00;;;;;;5083502;28;20213;-37
2023/12/31 09:01:08;;;;;;;0.00;0.00;;;12.50;73.70;;;;;;5086043;28;20203;-38
2023/12/31 09:03:36;;;;;;;0.00;0.00;;;12.40;73.70;;;;;;5083881;28;20227;-37
2023/12/31 09:06:06;;;;;;;0.00;0.00;;;12.40;73.60;;;;;;5084660;28;20326;-38
2023/12/31 09:08:33;;;;;;;0.00;0.00;;;12.40;73.50;;;;;;5080335;28;20590;-38
2023/12/31 09:11:00;;;;;;;0.00;0.00;;;12.40;73.30;;;;;;5082521;28;20634;-37
2023/12/31 09:13:30;;;;;;;0.00;0.00;;;12.40;73.70;;;;;;5085436;28;20272;-37
2023/12/31 09:15:59;;;;;;;0.00;0.00;;;12.40;73.50;;;;;;5087853;28;20633;-37
2023/12/31 09:18:28;;;;;;;0.00;0.00;;;12.40;73.60;;;;;;5081208;28;20211;-37
2023/12/31 09:20:58;;;;;;;0.00;0.00;;;12.40;73.80;;;;;;5080081;28;20195;-37
2023/12/31 09:23:28;;;;;;;0.00;0.00;;;12.40;73.70;;;;;;5083088;28;20222;-38
2023/12/31 09:25:55;;;;;;;0.00;0.00;;;12.40;74.00;;;;;;5080525;28;20199;-37
2023/12/31 09:28:27;;;;;;;0.00;0.00;;;12.40;73.50;;;;;;5084108;28;20218;-38
2023/12/31 09:31:01;;;;;;;0.00;0.00;;;12.30;73.60;;;;;;5081998;28;20207;-38
2023/12/31 09:33:28;;;;;;;0.00;0.00;;;12.30;73.70;;;;;;5083249;28;20210;-37
2023/12/31 09:35:56;;;;;;;0.00;0.00;;;12.30;73.60;;;;;;5085532;28;20202;-38
2023/12/31 09:38:23;;;;;;;0.00;0.00;;;12.30;73.40;;;;;;5085139;28;20223;-37
2023/12/31 09:40:54;;;;;;;0.00;0.00;;;12.30;73.60;;;;;;5085175;28;20672;-37
2023/12/31 09:43:27;;;;;;;0.00;0.00;;;12.30;73.70;;;;;;5085003;28;20202;-38
2023/12/31 09:46:00;;;;;;;0.00;0.00;;;12.30;73.70;;;;;;5084098;28;20187;-37
2023/12/31 09:48:31;;;;;;;0.00;0.00;;;12.30;73.70;;;;;;5080548;28;20234;-38
2023/12/31 09:51:01;;;;;;;0.00;0.00;;;12.30;73.70;;;;;;5083506;28;20669;-38
2023/12/31 09:53:34;;;;;;;0.00;0.00;;;12.30;73.80;;;;;;5083892;28;20203;-37
2023/12/31 09:56:04;;;;;;;0.00;0.00;;;12.20;73.90;;;;;;5085161;28;20855;-38
2023/12/31 09:58:35;;;;;;;0.00;0.00;;;12.20;73.80;;;;;;5085584;28;20276;-38
2023/12/31 10:01:02;;;;;;;0.00;0.00;;;12.20;73.90;;;;;;5082728;28;20585;-37
2023/12/31 10:03:30;;;;;;;0.00;0.00;;;12.20;73.90;;;;;;5080053;28;20824;-37
2023/12/31 10:06:02;;;;;;;0.00;0.00;;;12.20;73.80;;;;;;5071216;28;20333;-38
2023/12/31 10:08:33;;;;;;;0.00;0.00;;;12.20;73.80;;;;;;5082716;28;20933;-36
2023/12/31 10:11:04;;;;;;;0.00;0.00;;;12.20;73.80;;;;;;5076565;28;20207;-38
2023/12/31 10:13:34;;;;;;;0.00;0.00;;;12.10;73.60;;;;;;5078315;28;20229;-38
2023/12/31 10:16:13;;;;;;;0.00;0.00;;;12.10;73.90;;;;;;5080348;28;20198;-38
2023/12/31 10:18:45;;;;;;;0.00;0.00;;;12.10;73.70;;;;;;5083281;28;20202;-38
2023/12/31 10:21:15;;;;;;;0.00;0.00;;;12.10;73.80;;;;;;5081505;28;20199;-36
2023/12/31 10:23:45;;;;;;;0.00;0.00;;;12.10;73.80;;;;;;5080762;28;20329;-37
2023/12/31 10:26:18;;;;;;;0.00;0.00;;;12.10;73.90;;;;;;5084909;28;20671;-36
2023/12/31 10:28:45;;;;;;;0.00;0.00;;;12.10;73.90;;;;;;5063490;28;20234;-37
2023/12/31 10:31:14;;;;;;;0.00;0.00;;;12.00;73.90;;;;;;5077363;28;20747;-37
2023/12/31 10:33:41;;;;;;;0.00;0.00;;;12.00;73.90;;;;;;5085322;28;20609;-38
2023/12/31 10:36:11;;;;;;;0.00;0.00;;;12.00;73.90;;;;;;5082474;28;20673;-39
2023/12/31 10:38:46;;;;;;;0.00;0.00;;;12.00;73.90;;;;;;5077233;28;20211;-38
2023/12/31 10:41:24;;;;;;;0.00;0.00;;;12.00;73.80;;;;;;5079492;28;20329;-37
2023/12/31 10:43:57;;;;;;;0.00;0.00;;;12.00;73.90;;;;;;5090863;28;20206;-37
2023/12/31 10:46:26;;;;;;;0.00;0.00;;;12.00;73.80;;;;;;5089872;28;20202;-25
2023/12/31 10:49:04;;;;;;;0.00;0.00;;;12.00;73.60;;;;;;5088369;28;20279;-25
2023/12/31 10:51:37;;;;;;;0.00;0.00;;;11.90;73.60;;;;;;5082204;28;20211;-25
2023/12/31 10:54:11;;;;;;;0.00;0.00;;;11.90;73.70;;;;;;5089974;28;20203;-25
2023/12/31 10:56:41;;;;;;;0.00;0.00;;;11.90;73.80;;;;;;5086919;28;20186;-25
2023/12/31 10:59:12;;;;;;;0.00;0.00;;;11.90;74.60;;;;;;5087943;28;20203;-25
2023/12/31 11:01:43;;;;;;;0.00;0.00;;;11.90;73.80;;;;;;5087258;28;20776;-25
2023/12/31 11:04:17;;;;;;;0.00;0.00;;;11.90;73.70;;;;;;5090362;28;20206;-25
2023/12/31 11:06:47;;;;;;;0.00;0.00;;;11.90;73.90;;;;;;5087138;28;20246;-25
2023/12/31 11:09:15;;;;;;;0.00;0.00;;;11.90;73.40;;;;;;5088541;28;20308;-25
2023/12/31 11:11:45;;;;;;;0.00;0.00;;;11.90;73.60;;;;;;5086583;28;20679;-25
2023/12/31 11:14:14;;;;;;;0.00;0.00;;;11.90;73.50;;;;;;5083356;28;20691;-25
2023/12/31 11:16:59;;;;;;;0.00;0.00;;;11.90;73.60;;;;;;5088731;28;20290;-25
2023/12/31 11:19:40;;;;;;;0.00;0.00;;;11.90;73.60;;;;;;5087218;28;20207;-25
2023/12/31 11:22:41;;;;;;;0.00;0.00;;;11.90;73.40;;;;;;5084405;28;20302;-25
2023/12/31 11:25:10;;;;;;;0.00;0.00;;;11.80;73.40;;;;;;5089474;28;20205;-25
2023/12/31 11:27:37;;;;;;;0.00;0.00;;;11.80;73.50;;;;;;5088840;28;20202;-25
2023/12/31 11:30:06;;;;;;;0.00;0.00;;;11.80;73.30;;;;;;5088428;28;20539;-25
2023/12/31 11:32:36;;;;;;;0.00;0.00;;;11.80;73.60;;;;;;5085291;28;20219;-25
2023/12/31 11:35:05;;;;;;;0.00;0.00;;;11.70;73.20;;;;;;5087827;28;20246;-27
2023/12/31 11:37:39;;;;;;;0.00;0.00;;;11.70;73.10;;;;;;5089129;28;20222;-25
2023/12/31 11:40:12;;;;;;;0.00;0.00;;;11.70;73.40;;;;;;5089107;28;20911;-25
2023/12/31 11:42:43;;;;;;;0.00;0.00;;;11.70;73.30;;;;;;5085117;28;20319;-25
2023/12/31 11:45:42;;;;;;;0.00;0.00;;;11.60;73.30;;;;;;5084739;28;20211;-25
2023/12/31 11:48:30;;;;;;;0.00;0.00;;;11.60;73.40;;;;;;5080496;28;20219;-25
2023/12/31 11:50:58;;;;;;;0.00;0.00;;;11.60;73.50;;;;;;5077082;28;20191;-25
2023/12/31 11:53:30;;;;;;;0.00;0.00;;;11.60;73.60;;;;;;5081945;28;20211;-25
2023/12/31 11:56:01;;;;;;;0.00;0.00;;;11.60;73.70;;;;;;5082718;28;20191;-25
2023/12/31 11:58:33;;;;;;;0.00;0.00;;;11.60;73.50;;;;;;5082425;28;20704;-25
2023/12/31 12:01:08;;;;;;;0.00;0.00;;;11.60;73.70;;;;;;5082167;28;20225;-25
2023/12/31 12:03:37;;;;;;;0.00;0.00;;;11.70;73.70;;;;;;5084616;28;20256;-25
2023/12/31 12:06:10;;;;;;;0.00;0.00;;;11.70;73.50;;;;;;5083441;28;20316;-25
2023/12/31 12:08:39;;;;;;;0.00;0.00;;;11.70;73.00;;;;;;5099700;28;20891;-25
2023/12/31 12:11:07;;;;;;;0.00;0.00;;;11.70;73.40;;;;;;5082122;28;20212;-25
2023/12/31 12:13:37;;;;;;;0.00;0.00;;;11.70;73.50;;;;;;5080499;28;20226;-26
2023/12/31 12:16:07;;;;;;;0.00;0.00;;;11.70;73.50;;;;;;5078726;28;20641;-37
2023/12/31 12:18:35;;;;;;;0.00;0.00;;;11.70;73.50;;;;;;5086634;28;20647;-37
2023/12/31 12:21:07;;;;;;;0.00;0.00;;;11.70;73.50;;;;;;5087478;28;20209;-37
2023/12/31 12:23:34;;;;;;;0.00;0.00;;;11.70;73.60;;;;;;5087049;28;20737;-36
2023/12/31 12:26:03;;;;;;;0.00;0.00;;;11.70;73.50;;;;;;5085713;28;20211;-38
2023/12/31 12:28:33;;;;;;;0.00;0.00;;;11.70;73.50;;;;;;5087476;28;20237;-37
2023/12/31 12:31:01;;;;;;;0.00;0.00;;;11.70;73.40;;;;;;5079049;28;20204;-37
2023/12/31 12:33:30;;;;;;;0.00;0.00;;;11.70;73.20;;;;;;5085196;28;20199;-36
2023/12/31 12:36:02;;;;;;;0.00;0.00;;;11.70;73.10;;;;;;5078065;28;20230;-37
2023/12/31 12:38:31;;;;;;;0.00;0.00;;;11.70;73.20;;;;;;5082997;28;20208;-38
2023/12/31 12:41:00;;;;;;;0.00;0.00;;;11.70;73.10;;;;;;5086035;28;20361;-37
2023/12/31 12:43:37;;;;;;;0.00;0.00;;;11.80;73.10;;;;;;5085270;28;20226;-37
2023/12/31 12:46:10;;;;;;;0.00;0.00;;;11.80;73.30;;;;;;5083765;28;20225;-36
2023/12/31 12:48:50;;;;;;;0.00;0.00;;;11.80;72.80;;;;;;5082104;28;20225;-37
2023/12/31 12:51:17;;;;;;;0.00;0.00;;;11.80;73.00;;;;;;5083217;28;20293;-37
2023/12/31 12:53:44;;;;;;;0.00;0.00;;;11.80;73.00;;;;;;5066392;28;20219;-39
2023/12/31 12:56:14;;;;;;;0.00;0.00;;;11.80;73.10;;;;;;5082053;28;20222;-37
2023/12/31 12:58:42;;;;;;;0.00;0.00;;;11.80;73.10;;;;;;5078098;28;20211;-25
2023/12/31 13:01:11;;;;;;;0.00;0.00;;;11.80;72.90;;;;;;5063956;28;20227;-26